sensor_id;sensor_type;location;lat;lon;timestamp;pressure;altitude;pressure_sealevel;temperature
73662;BMP280;61956;52.540;13.382;2022-07-23T00:01:36;84362.94;;;19.35
73662;BMP280;61956;52.540;13.382;2022-07-23T00:04:09;84173.44;;;19.28
73662;BMP280;61956;52.540;13.382;2022-07-23T00:06:38;83956.53;;;19.22
73662;BMP280;61956;52.540;13.382;2022-07-23T00:09:07;85474.25;;;19.34
73662;BMP280;61956;52.540;13.382;2022-07-23T00:11:36;84667.16;;;19.27
73662;BMP280;61956;52.540;13.382;2022-07-23T00:14:06;85101.41;;;19.29
73662;BMP280;61956;52.540;13.382;2022-07-23T00:16:35;84500.53;;;19.22
73662;BMP280;61956;52.540;13.382;2022-07-23T00:19:04;84005.72;;;19.15
73662;BMP280;61956;52.540;13.382;2022-07-23T00:21:36;84076.44;;;19.11
73662;BMP280;61956;52.540;13.382;2022-07-23T00:24:05;84590.22;;;19.14
73662;BMP280;61956;52.540;13.382;2022-07-23T00:26:35;85354.63;;;19.21
73662;BMP280;61956;52.540;13.382;2022-07-23T00:29:04;85995.72;;;19.29
73662;BMP280;61956;52.540;13.382;2022-07-23T00:31:33;85098.25;;;19.21
73662;BMP280;61956;52.540;13.382;2022-07-23T00:34:02;84902.09;;;19.16
73662;BMP280;61956;52.540;13.382;2022-07-23T00:36:32;84743.91;;;19.11
73662;BMP280;61956;52.540;13.382;2022-07-23T00:39:03;83884.53;;;19.02
73662;BMP280;61956;52.540;13.382;2022-07-23T00:41:32;83915.94;;;19.00
73662;BMP280;61956;52.540;13.382;2022-07-23T00:44:15;83464.03;;;18.91
73662;BMP280;61956;52.540;13.382;2022-07-23T00:46:46;84516.00;;;18.97
73662;BMP280;61956;52.540;13.382;2022-07-23T00:49:19;85284.69;;;19.05
73662;BMP280;61956;52.540;13.382;2022-07-23T00:51:54;84147.44;;;18.95
73662;BMP280;61956;52.540;13.382;2022-07-23T00:54:26;83401.59;;;18.83
73662;BMP280;61956;52.540;13.382;2022-07-23T00:56:56;83654.47;;;18.81
73662;BMP280;61956;52.540;13.382;2022-07-23T00:59:25;83641.50;;;18.79
73662;BMP280;61956;52.540;13.382;2022-07-23T01:01:56;83035.66;;;18.71
73662;BMP280;61956;52.540;13.382;2022-07-23T01:04:25;83321.75;;;18.70
73662;BMP280;61956;52.540;13.382;2022-07-23T01:06:57;83423.03;;;18.67
73662;BMP280;61956;52.540;13.382;2022-07-23T01:09:28;82656.88;;;18.58
73662;BMP280;61956;52.540;13.382;2022-07-23T01:11:59;82702.06;;;18.54
73662;BMP280;61956;52.540;13.382;2022-07-23T01:14:28;83391.31;;;18.58
73662;BMP280;61956;52.540;13.382;2022-07-23T01:16:57;83004.97;;;18.54
73662;BMP280;61956;52.540;13.382;2022-07-23T01:19:26;82869.34;;;18.50
73662;BMP280;61956;52.540;13.382;2022-07-23T01:22:01;84817.69;;;18.67
73662;BMP280;61956;52.540;13.382;2022-07-23T01:24:34;84143.53;;;18.64
73662;BMP280;61956;52.540;13.382;2022-07-23T01:27:05;82868.72;;;18.50
73662;BMP280;61956;52.540;13.382;2022-07-23T01:29:36;82611.91;;;18.43
73662;BMP280;61956;52.540;13.382;2022-07-23T01:32:12;83889.81;;;18.50
73662;BMP280;61956;52.540;13.382;2022-07-23T01:34:41;82988.47;;;18.43
73662;BMP280;61956;52.540;13.382;2022-07-23T01:37:11;82635.66;;;18.36
73662;BMP280;61956;52.540;13.382;2022-07-23T01:39:43;83496.34;;;18.42
73662;BMP280;61956;52.540;13.382;2022-07-23T01:42:13;82417.31;;;18.31
73662;BMP280;61956;52.540;13.382;2022-07-23T01:44:42;82759.22;;;18.31
73662;BMP280;61956;52.540;13.382;2022-07-23T01:47:17;82870.19;;;18.30
73662;BMP280;61956;52.540;13.382;2022-07-23T01:49:49;81890.88;;;18.19
73662;BMP280;61956;52.540;13.382;2022-07-23T01:52:39;82091.97;;;18.14
73662;BMP280;61956;52.540;13.382;2022-07-23T01:55:11;82191.84;;;18.13
73662;BMP280;61956;52.540;13.382;2022-07-23T01:57:42;82605.34;;;18.14
73662;BMP280;61956;52.540;13.382;2022-07-23T02:00:13;82937.91;;;18.17
73662;BMP280;61956;52.540;13.382;2022-07-23T02:02:47;83132.97;;;18.19
73662;BMP280;61956;52.540;13.382;2022-07-23T02:05:16;83250.41;;;18.19
73662;BMP280;61956;52.540;13.382;2022-07-23T02:07:45;83142.75;;;18.18
73662;BMP280;61956;52.540;13.382;2022-07-23T02:10:17;83000.00;;;18.14
73662;BMP280;61956;52.540;13.382;2022-07-23T02:12:46;82596.44;;;18.09
73662;BMP280;61956;52.540;13.382;2022-07-23T02:15:15;82047.66;;;18.02
73662;BMP280;61956;52.540;13.382;2022-07-23T02:17:44;81798.25;;;17.96
73662;BMP280;61956;52.540;13.382;2022-07-23T02:20:14;82602.00;;;18.01
73662;BMP280;61956;52.540;13.382;2022-07-23T02:22:43;82632.06;;;18.00
73662;BMP280;61956;52.540;13.382;2022-07-23T02:25:12;82621.69;;;17.98
73662;BMP280;61956;52.540;13.382;2022-07-23T02:27:44;82275.63;;;17.94
73662;BMP280;61956;52.540;13.382;2022-07-23T02:30:13;82058.75;;;17.90
73662;BMP280;61956;52.540;13.382;2022-07-23T02:32:42;83137.63;;;17.97
73662;BMP280;61956;52.540;13.382;2022-07-23T02:35:11;83024.81;;;17.97
73662;BMP280;61956;52.540;13.382;2022-07-23T02:37:41;83262.84;;;17.97
73662;BMP280;61956;52.540;13.382;2022-07-23T02:40:10;83415.50;;;17.98
73662;BMP280;61956;52.540;13.382;2022-07-23T02:42:44;82429.69;;;17.90
73662;BMP280;61956;52.540;13.382;2022-07-23T02:45:14;82720.56;;;17.89
73662;BMP280;61956;52.540;13.382;2022-07-23T02:47:43;82526.38;;;17.86
73662;BMP280;61956;52.540;13.382;2022-07-23T02:50:12;82411.09;;;17.83
73662;BMP280;61956;52.540;13.382;2022-07-23T02:52:43;82938.47;;;17.86
73662;BMP280;61956;52.540;13.382;2022-07-23T02:55:12;82279.00;;;17.78
73662;BMP280;61956;52.540;13.382;2022-07-23T02:57:44;81474.66;;;17.68
73662;BMP280;61956;52.540;13.382;2022-07-23T03:00:13;81064.69;;;17.61
73662;BMP280;61956;52.540;13.382;2022-07-23T03:02:43;80717.97;;;17.54
73662;BMP280;61956;52.540;13.382;2022-07-23T03:05:14;80888.84;;;17.51
73662;BMP280;61956;52.540;13.382;2022-07-23T03:07:43;80846.69;;;17.49
73662;BMP280;61956;52.540;13.382;2022-07-23T03:10:13;80982.28;;;17.47
73662;BMP280;61956;52.540;13.382;2022-07-23T03:12:46;81154.97;;;17.45
73662;BMP280;61956;52.540;13.382;2022-07-23T03:15:15;80996.81;;;17.44
73662;BMP280;61956;52.540;13.382;2022-07-23T03:17:44;80635.97;;;17.36
73662;BMP280;61956;52.540;13.382;2022-07-23T03:20:13;80130.06;;;17.29
73662;BMP280;61956;52.540;13.382;2022-07-23T03:22:42;80031.66;;;17.23
73662;BMP280;61956;52.540;13.382;2022-07-23T03:25:11;79443.53;;;17.14
73662;BMP280;61956;52.540;13.382;2022-07-23T03:27:40;79371.06;;;17.10
73662;BMP280;61956;52.540;13.382;2022-07-23T03:30:13;79275.97;;;17.04
73662;BMP280;61956;52.540;13.382;2022-07-23T03:32:43;79936.69;;;17.06
73662;BMP280;61956;52.540;13.382;2022-07-23T03:35:12;80230.63;;;17.08
73662;BMP280;61956;52.540;13.382;2022-07-23T03:37:49;80766.69;;;17.10
73662;BMP280;61956;52.540;13.382;2022-07-23T03:40:18;80864.22;;;17.11
73662;BMP280;61956;52.540;13.382;2022-07-23T03:42:47;80516.31;;;17.08
73662;BMP280;61956;52.540;13.382;2022-07-23T03:45:19;81002.34;;;17.09
73662;BMP280;61956;52.540;13.382;2022-07-23T03:47:48;81881.41;;;17.17
73662;BMP280;61956;52.540;13.382;2022-07-23T03:50:17;81509.13;;;17.15
73662;BMP280;61956;52.540;13.382;2022-07-23T03:52:46;81766.81;;;17.17
73662;BMP280;61956;52.540;13.382;2022-07-23T03:55:16;82617.03;;;17.24
73662;BMP280;61956;52.540;13.382;2022-07-23T03:57:45;82613.06;;;17.25
73662;BMP280;61956;52.540;13.382;2022-07-23T04:00:15;82885.88;;;17.29
73662;BMP280;61956;52.540;13.382;2022-07-23T04:02:48;82285.50;;;17.24
73662;BMP280;61956;52.540;13.382;2022-07-23T04:05:17;82695.72;;;17.27
73662;BMP280;61956;52.540;13.382;2022-07-23T04:07:50;83412.81;;;17.35
73662;BMP280;61956;52.540;13.382;2022-07-23T04:10:19;83642.78;;;17.38
73662;BMP280;61956;52.540;13.382;2022-07-23T04:12:49;83203.63;;;17.35
73662;BMP280;61956;52.540;13.382;2022-07-23T04:15:18;82802.38;;;17.31
73662;BMP280;61956;52.540;13.382;2022-07-23T04:17:50;83335.28;;;17.34
73662;BMP280;61956;52.540;13.382;2022-07-23T04:20:21;82689.09;;;17.30
73662;BMP280;61956;52.540;13.382;2022-07-23T04:22:55;82973.78;;;17.30
73662;BMP280;61956;52.540;13.382;2022-07-23T04:25:24;82982.22;;;17.31
73662;BMP280;61956;52.540;13.382;2022-07-23T04:27:54;83058.41;;;17.31
73662;BMP280;61956;52.540;13.382;2022-07-23T04:30:23;82833.75;;;17.29
73662;BMP280;61956;52.540;13.382;2022-07-23T04:32:57;82960.81;;;17.28
73662;BMP280;61956;52.540;13.382;2022-07-23T04:35:28;83095.66;;;17.30
73662;BMP280;61956;52.540;13.382;2022-07-23T04:38:06;80608.16;;;17.06
73662;BMP280;61956;52.540;13.382;2022-07-23T04:40:35;80128.72;;;16.97
73662;BMP280;61956;52.540;13.382;2022-07-23T04:43:04;77745.22;;;16.72
73662;BMP280;61956;52.540;13.382;2022-07-23T04:45:40;76800.06;;;16.52
73662;BMP280;61956;52.540;13.382;2022-07-23T04:48:12;76676.47;;;16.44
73662;BMP280;61956;52.540;13.382;2022-07-23T04:50:42;75049.16;;;16.21
73662;BMP280;61956;52.540;13.382;2022-07-23T04:53:17;76124.56;;;16.22
73662;BMP280;61956;52.540;13.382;2022-07-23T04:55:48;77335.78;;;16.25
73662;BMP280;61956;52.540;13.382;2022-07-23T04:58:17;77503.19;;;16.26
73662;BMP280;61956;52.540;13.382;2022-07-23T05:00:46;75790.72;;;16.06
73662;BMP280;61956;52.540;13.382;2022-07-23T05:03:18;78534.31;;;16.26
73662;BMP280;61956;52.540;13.382;2022-07-23T05:05:48;79169.66;;;16.32
73662;BMP280;61956;52.540;13.382;2022-07-23T05:08:18;78686.53;;;16.30
73662;BMP280;61956;52.540;13.382;2022-07-23T05:10:53;77776.78;;;16.18
73662;BMP280;61956;52.540;13.382;2022-07-23T05:13:22;78217.06;;;16.17
73662;BMP280;61956;52.540;13.382;2022-07-23T05:15:52;78282.81;;;16.16
73662;BMP280;61956;52.540;13.382;2022-07-23T05:18:25;79059.66;;;16.20
73662;BMP280;61956;52.540;13.382;2022-07-23T05:20:54;80501.63;;;16.33
73662;BMP280;61956;52.540;13.382;2022-07-23T05:23:25;79390.47;;;16.25
73662;BMP280;61956;52.540;13.382;2022-07-23T05:25:54;77850.63;;;16.08
73662;BMP280;61956;52.540;13.382;2022-07-23T05:28:25;78776.09;;;16.11
73662;BMP280;61956;52.540;13.382;2022-07-23T05:30:54;80748.16;;;16.30
73662;BMP280;61956;52.540;13.382;2022-07-23T05:33:26;81020.91;;;16.34
73662;BMP280;61956;52.540;13.382;2022-07-23T05:36:00;81051.22;;;16.38
73662;BMP280;61956;52.540;13.382;2022-07-23T05:38:32;81068.94;;;16.36
73662;BMP280;61956;52.540;13.382;2022-07-23T05:41:02;82836.91;;;16.60
73662;BMP280;61956;52.540;13.382;2022-07-23T05:43:32;80914.34;;;16.43
73662;BMP280;61956;52.540;13.382;2022-07-23T05:46:07;81298.06;;;16.42
73662;BMP280;61956;52.540;13.382;2022-07-23T05:48:40;86065.00;;;16.85
73662;BMP280;61956;52.540;13.382;2022-07-23T05:51:25;82675.94;;;16.67
73662;BMP280;61956;52.540;13.382;2022-07-23T05:53:54;84828.22;;;16.82
73662;BMP280;61956;52.540;13.382;2022-07-23T05:56:27;84233.50;;;16.83
73662;BMP280;61956;52.540;13.382;2022-07-23T05:58:56;84785.84;;;16.90
73662;BMP280;61956;52.540;13.382;2022-07-23T06:01:25;81735.22;;;16.64
73662;BMP280;61956;52.540;13.382;2022-07-23T06:04:10;81743.44;;;16.55
73662;BMP280;61956;52.540;13.382;2022-07-23T06:06:46;85211.97;;;16.87
73662;BMP280;61956;52.540;13.382;2022-07-23T06:09:15;82126.72;;;16.67
73662;BMP280;61956;52.540;13.382;2022-07-23T06:11:44;80335.09;;;16.44
73662;BMP280;61956;52.540;13.382;2022-07-23T06:14:13;79856.34;;;16.32
73662;BMP280;61956;52.540;13.382;2022-07-23T06:16:55;80057.25;;;16.31
73662;BMP280;61956;52.540;13.382;2022-07-23T06:19:30;79958.81;;;16.27
73662;BMP280;61956;52.540;13.382;2022-07-23T06:21:59;80229.91;;;16.25
73662;BMP280;61956;52.540;13.382;2022-07-23T06:24:29;82806.75;;;16.48
73662;BMP280;61956;52.540;13.382;2022-07-23T06:26:58;82888.66;;;16.51
73662;BMP280;61956;52.540;13.382;2022-07-23T06:29:27;82718.19;;;16.50
73662;BMP280;61956;52.540;13.382;2022-07-23T06:31:56;83702.56;;;16.61
73662;BMP280;61956;52.540;13.382;2022-07-23T06:34:28;84030.59;;;16.65
73662;BMP280;61956;52.540;13.382;2022-07-23T06:36:58;84261.69;;;16.71
73662;BMP280;61956;52.540;13.382;2022-07-23T06:39:27;84668.69;;;16.75
73662;BMP280;61956;52.540;13.382;2022-07-23T06:41:57;84508.44;;;16.76
73662;BMP280;61956;52.540;13.382;2022-07-23T06:44:37;84999.56;;;16.83
73662;BMP280;61956;52.540;13.382;2022-07-23T06:47:07;85697.50;;;16.93
73662;BMP280;61956;52.540;13.382;2022-07-23T06:49:39;82359.91;;;16.62
73662;BMP280;61956;52.540;13.382;2022-07-23T06:52:08;82643.66;;;16.59
73662;BMP280;61956;52.540;13.382;2022-07-23T06:54:38;83227.28;;;16.64
73662;BMP280;61956;52.540;13.382;2022-07-23T06:57:07;83349.03;;;16.64
73662;BMP280;61956;52.540;13.382;2022-07-23T06:59:36;82241.88;;;16.52
73662;BMP280;61956;52.540;13.382;2022-07-23T07:02:06;83030.34;;;16.56
73662;BMP280;61956;52.540;13.382;2022-07-23T07:04:35;82901.44;;;16.57
73662;BMP280;61956;52.540;13.382;2022-07-23T07:07:07;82974.31;;;16.57
73662;BMP280;61956;52.540;13.382;2022-07-23T07:09:36;83312.75;;;16.57
73662;BMP280;61956;52.540;13.382;2022-07-23T07:12:05;84536.47;;;16.70
73662;BMP280;61956;52.540;13.382;2022-07-23T07:14:35;84918.13;;;16.77
73662;BMP280;61956;52.540;13.382;2022-07-23T07:17:04;84776.16;;;16.76
73662;BMP280;61956;52.540;13.382;2022-07-23T07:19:33;85741.72;;;16.85
73662;BMP280;61956;52.540;13.382;2022-07-23T07:22:02;86329.81;;;16.96
73662;BMP280;61956;52.540;13.382;2022-07-23T07:24:34;86127.09;;;16.97
73662;BMP280;61956;52.540;13.382;2022-07-23T07:27:03;86487.09;;;17.03
73662;BMP280;61956;52.540;13.382;2022-07-23T07:29:33;86513.88;;;17.05
73662;BMP280;61956;52.540;13.382;2022-07-23T07:32:02;86455.22;;;17.06
73662;BMP280;61956;52.540;13.382;2022-07-23T07:34:31;87020.84;;;17.14
73662;BMP280;61956;52.540;13.382;2022-07-23T07:37:00;87094.63;;;17.17
73662;BMP280;61956;52.540;13.382;2022-07-23T07:39:29;87245.47;;;17.20
73662;BMP280;61956;52.540;13.382;2022-07-23T07:42:01;88524.50;;;17.34
73662;BMP280;61956;52.540;13.382;2022-07-23T07:44:30;89207.63;;;17.47
73662;BMP280;61956;52.540;13.382;2022-07-23T07:46:59;90614.72;;;17.69
73662;BMP280;61956;52.540;13.382;2022-07-23T07:49:28;90041.41;;;17.76
73662;BMP280;61956;52.540;13.382;2022-07-23T07:51:57;88345.75;;;17.62
73662;BMP280;61956;52.540;13.382;2022-07-23T07:54:26;88369.75;;;17.59
73662;BMP280;61956;52.540;13.382;2022-07-23T07:56:55;87741.38;;;17.54
73662;BMP280;61956;52.540;13.382;2022-07-23T07:59:27;88280.25;;;17.58
73662;BMP280;61956;52.540;13.382;2022-07-23T08:01:56;100275.50;;;18.70
73662;BMP280;61956;52.540;13.382;2022-07-23T08:04:25;98582.19;;;19.28
73662;BMP280;61956;52.540;13.382;2022-07-23T08:06:54;92144.78;;;18.91
73662;BMP280;61956;52.540;13.382;2022-07-23T08:09:23;94732.03;;;18.98
73662;BMP280;61956;52.540;13.382;2022-07-23T08:11:52;111507.00;;;21.56
73662;BMP280;61956;52.540;13.382;2022-07-23T08:14:21;105074.31;;;22.20
73662;BMP280;61956;52.540;13.382;2022-07-23T08:16:53;102500.13;;;21.90
73662;BMP280;61956;52.540;13.382;2022-07-23T08:19:22;95000.72;;;21.71
73662;BMP280;61956;52.540;13.382;2022-07-23T08:21:51;86521.63;;;20.21
73662;BMP280;61956;52.540;13.382;2022-07-23T08:24:20;95812.22;;;21.22
73662;BMP280;61956;52.540;13.382;2022-07-23T08:26:49;97571.59;;;21.53
73662;BMP280;61956;52.540;13.382;2022-07-23T08:29:18;98716.50;;;21.64
73662;BMP280;61956;52.540;13.382;2022-07-23T08:31:47;103013.19;;;22.73
73662;BMP280;61956;52.540;13.382;2022-07-23T08:34:19;98934.41;;;22.34
73662;BMP280;61956;52.540;13.382;2022-07-23T08:36:48;96757.41;;;22.28
73662;BMP280;61956;52.540;13.382;2022-07-23T08:39:17;94812.44;;;21.87
73662;BMP280;61956;52.540;13.382;2022-07-23T08:41:47;95426.44;;;21.85
73662;BMP280;61956;52.540;13.382;2022-07-23T08:44:17;95829.41;;;21.86
73662;BMP280;61956;52.540;13.382;2022-07-23T08:46:48;96240.75;;;22.03
73662;BMP280;61956;52.540;13.382;2022-07-23T08:49:20;95847.03;;;21.90
73662;BMP280;61956;52.540;13.382;2022-07-23T08:51:51;97446.75;;;22.26
73662;BMP280;61956;52.540;13.382;2022-07-23T08:54:21;97107.47;;;22.18
73662;BMP280;61956;52.540;13.382;2022-07-23T08:56:51;97598.69;;;22.38
73662;BMP280;61956;52.540;13.382;2022-07-23T08:59:20;97381.50;;;22.30
73662;BMP280;61956;52.540;13.382;2022-07-23T09:01:52;92437.63;;;21.86
73662;BMP280;61956;52.540;13.382;2022-07-23T09:04:24;88106.16;;;20.99
73662;BMP280;61956;52.540;13.382;2022-07-23T09:06:53;89300.81;;;20.89
73662;BMP280;61956;52.540;13.382;2022-07-23T09:09:22;87536.41;;;20.49
73662;BMP280;61956;52.540;13.382;2022-07-23T09:12:03;88963.53;;;20.53
73662;BMP280;61956;52.540;13.382;2022-07-23T09:14:36;90779.13;;;20.67
73662;BMP280;61956;52.540;13.382;2022-07-23T09:17:11;90103.72;;;20.63
73662;BMP280;61956;52.540;13.382;2022-07-23T09:19:45;87982.38;;;20.28
73662;BMP280;61956;52.540;13.382;2022-07-23T09:22:22;92050.66;;;20.63
73662;BMP280;61956;52.540;13.382;2022-07-23T09:25:03;92432.41;;;20.69
73662;BMP280;61956;52.540;13.382;2022-07-23T09:27:50;91089.06;;;20.58
73662;BMP280;61956;52.540;13.382;2022-07-23T09:30:23;92456.94;;;20.77
73662;BMP280;61956;52.540;13.382;2022-07-23T09:33:07;93067.91;;;20.80
73662;BMP280;61956;52.540;13.382;2022-07-23T09:35:52;94874.44;;;21.16
73662;BMP280;61956;52.540;13.382;2022-07-23T09:38:23;93629.94;;;21.11
73662;BMP280;61956;52.540;13.382;2022-07-23T09:41:06;94028.34;;;21.14
73662;BMP280;61956;52.540;13.382;2022-07-23T09:43:36;91938.94;;;20.91
73662;BMP280;61956;52.540;13.382;2022-07-23T09:46:19;91786.19;;;20.81
73662;BMP280;61956;52.540;13.382;2022-07-23T09:48:50;92724.47;;;20.96
73662;BMP280;61956;52.540;13.382;2022-07-23T09:51:24;91417.81;;;20.77
73662;BMP280;61956;52.540;13.382;2022-07-23T09:54:00;92618.47;;;20.82
73662;BMP280;61956;52.540;13.382;2022-07-23T09:56:30;94406.44;;;21.11
73662;BMP280;61956;52.540;13.382;2022-07-23T09:59:02;91768.38;;;20.87
73662;BMP280;61956;52.540;13.382;2022-07-23T10:01:33;93557.19;;;20.97
73662;BMP280;61956;52.540;13.382;2022-07-23T10:04:03;95890.50;;;21.34
73662;BMP280;61956;52.540;13.382;2022-07-23T10:51:31;97260.56;;;21.80
73662;BMP280;61956;52.540;13.382;2022-07-23T10:54:00;94570.78;;;21.64
73662;BMP280;61956;52.540;13.382;2022-07-23T11:02:50;93717.41;;;21.43
73662;BMP280;61956;52.540;13.382;2022-07-23T11:05:24;95516.13;;;21.63
73662;BMP280;61956;52.540;13.382;2022-07-23T11:08:26;97812.31;;;22.00
73662;BMP280;61956;52.540;13.382;2022-07-23T11:11:08;97064.59;;;22.10
73662;BMP280;61956;52.540;13.382;2022-07-23T11:16:29;95951.75;;;22.15
73662;BMP280;61956;52.540;13.382;2022-07-23T11:19:07;95477.03;;;22.11
73662;BMP280;61956;52.540;13.382;2022-07-23T11:21:57;95298.53;;;21.99
73662;BMP280;61956;52.540;13.382;2022-07-23T11:24:29;94864.38;;;21.96
73662;BMP280;61956;52.540;13.382;2022-07-23T11:27:02;93731.63;;;21.79
73662;BMP280;61956;52.540;13.382;2022-07-23T11:29:46;94673.50;;;21.88
73662;BMP280;61956;52.540;13.382;2022-07-23T11:32:28;94046.63;;;21.80
73662;BMP280;61956;52.540;13.382;2022-07-23T11:35:06;94241.63;;;21.80
73662;BMP280;61956;52.540;13.382;2022-07-23T11:37:48;94109.59;;;21.78
73662;BMP280;61956;52.540;13.382;2022-07-23T11:40:22;94143.34;;;21.74
73662;BMP280;61956;52.540;13.382;2022-07-23T11:42:56;95330.19;;;21.90
73662;BMP280;61956;52.540;13.382;2022-07-23T11:45:33;96481.81;;;22.09
73662;BMP280;61956;52.540;13.382;2022-07-23T11:48:06;98043.53;;;22.40
73662;BMP280;61956;52.540;13.382;2022-07-23T11:50:36;100107.38;;;22.84
73662;BMP280;61956;52.540;13.382;2022-07-23T11:53:07;99159.28;;;22.94
73662;BMP280;61956;52.540;13.382;2022-07-23T11:55:39;98057.09;;;22.89
73662;BMP280;61956;52.540;13.382;2022-07-23T11:58:08;97270.75;;;22.81
73662;BMP280;61956;52.540;13.382;2022-07-23T12:00:40;97561.00;;;22.86
73662;BMP280;61956;52.540;13.382;2022-07-23T12:03:10;95986.22;;;22.67
73662;BMP280;61956;52.540;13.382;2022-07-23T12:05:39;96589.00;;;22.72
73662;BMP280;61956;52.540;13.382;2022-07-23T12:08:09;97955.16;;;22.88
73662;BMP280;61956;52.540;13.382;2022-07-23T12:10:43;97046.09;;;22.84
73662;BMP280;61956;52.540;13.382;2022-07-23T12:13:14;97541.66;;;22.96
73662;BMP280;61956;52.540;13.382;2022-07-23T12:15:47;97696.44;;;23.01
73662;BMP280;61956;52.540;13.382;2022-07-23T12:18:20;97795.75;;;23.05
73662;BMP280;61956;52.540;13.382;2022-07-23T12:20:52;97665.78;;;23.07
73662;BMP280;61956;52.540;13.382;2022-07-23T12:23:25;97858.00;;;23.13
73662;BMP280;61956;52.540;13.382;2022-07-23T12:26:01;97644.56;;;23.14
73662;BMP280;61956;52.540;13.382;2022-07-23T12:28:32;99300.59;;;23.39
73662;BMP280;61956;52.540;13.382;2022-07-23T12:31:03;98994.16;;;23.52
73662;BMP280;61956;52.540;13.382;2022-07-23T12:33:34;97075.44;;;23.33
73662;BMP280;61956;52.540;13.382;2022-07-23T12:36:07;97398.81;;;23.34
73662;BMP280;61956;52.540;13.382;2022-07-23T12:38:39;96106.09;;;23.17
73662;BMP280;61956;52.540;13.382;2022-07-23T12:41:12;96287.06;;;23.13
73662;BMP280;61956;52.540;13.382;2022-07-23T12:43:44;96738.06;;;23.19
73662;BMP280;61956;52.540;13.382;2022-07-23T12:46:15;97127.38;;;23.23
73662;BMP280;61956;52.540;13.382;2022-07-23T12:48:51;97766.41;;;23.37
73662;BMP280;61956;52.540;13.382;2022-07-23T12:51:25;98544.59;;;23.50
73662;BMP280;61956;52.540;13.382;2022-07-23T12:53:57;97874.00;;;23.55
73662;BMP280;61956;52.540;13.382;2022-07-23T12:56:37;96993.34;;;23.40
73662;BMP280;61956;52.540;13.382;2022-07-23T12:59:10;96471.16;;;23.32
73662;BMP280;61956;52.540;13.382;2022-07-23T13:01:42;96900.94;;;23.33
73662;BMP280;61956;52.540;13.382;2022-07-23T13:04:17;96360.66;;;23.27
73662;BMP280;61956;52.540;13.382;2022-07-23T13:06:49;97080.28;;;23.38
73662;BMP280;61956;52.540;13.382;2022-07-23T13:09:22;97170.50;;;23.40
73662;BMP280;61956;52.540;13.382;2022-07-23T13:11:57;97761.34;;;23.54
73662;BMP280;61956;52.540;13.382;2022-07-23T13:14:27;97215.72;;;23.49
73662;BMP280;61956;52.540;13.382;2022-07-23T13:16:59;97629.84;;;23.54
73662;BMP280;61956;52.540;13.382;2022-07-23T13:19:28;99571.91;;;23.87
73662;BMP280;61956;52.540;13.382;2022-07-23T13:21:57;98282.97;;;23.88
73662;BMP280;61956;52.540;13.382;2022-07-23T13:24:26;98985.88;;;23.94
73662;BMP280;61956;52.540;13.382;2022-07-23T13:26:58;99037.84;;;24.05
73662;BMP280;61956;52.540;13.382;2022-07-23T13:29:27;97998.50;;;23.92
73662;BMP280;61956;52.540;13.382;2022-07-23T13:31:56;100923.22;;;24.38
73662;BMP280;61956;52.540;13.382;2022-07-23T13:34:25;99419.81;;;24.38
73662;BMP280;61956;52.540;13.382;2022-07-23T13:36:54;98615.94;;;24.26
73662;BMP280;61956;52.540;13.382;2022-07-23T13:39:23;98119.75;;;24.22
73662;BMP280;61956;52.540;13.382;2022-07-23T13:41:52;99127.78;;;24.32
73662;BMP280;61956;52.540;13.382;2022-07-23T13:44:24;97334.28;;;24.21
73662;BMP280;61956;52.540;13.382;2022-07-23T13:46:53;97429.81;;;24.11
73662;BMP280;61956;52.540;13.382;2022-07-23T13:49:22;95928.25;;;23.88
73662;BMP280;61956;52.540;13.382;2022-07-23T13:51:51;96181.63;;;23.84
73662;BMP280;61956;52.540;13.382;2022-07-23T13:54:20;97516.19;;;24.01
73662;BMP280;61956;52.540;13.382;2022-07-23T13:56:49;97044.66;;;23.99
73662;BMP280;61956;52.540;13.382;2022-07-23T13:59:18;98007.50;;;24.09
73662;BMP280;61956;52.540;13.382;2022-07-23T14:01:50;96792.00;;;24.00
73662;BMP280;61956;52.540;13.382;2022-07-23T14:04:20;96632.66;;;23.92
73662;BMP280;61956;52.540;13.382;2022-07-23T14:06:49;98782.88;;;24.23
73662;BMP280;61956;52.540;13.382;2022-07-23T14:09:18;99971.94;;;24.54
73662;BMP280;61956;52.540;13.382;2022-07-23T14:11:48;99502.69;;;24.61
73662;BMP280;61956;52.540;13.382;2022-07-23T14:14:17;98111.69;;;24.47
73662;BMP280;61956;52.540;13.382;2022-07-23T14:16:46;98583.78;;;24.49
73662;BMP280;61956;52.540;13.382;2022-07-23T14:19:18;98499.34;;;24.55
73662;BMP280;61956;52.540;13.382;2022-07-23T14:21:47;97530.66;;;24.43
73662;BMP280;61956;52.540;13.382;2022-07-23T14:24:17;95989.16;;;24.16
73662;BMP280;61956;52.540;13.382;2022-07-23T14:26:46;96390.00;;;24.15
73662;BMP280;61956;52.540;13.382;2022-07-23T14:29:15;96927.00;;;24.16
73662;BMP280;61956;52.540;13.382;2022-07-23T14:31:44;97211.31;;;24.22
73662;BMP280;61956;52.540;13.382;2022-07-23T14:34:14;98568.63;;;24.46
73662;BMP280;61956;52.540;13.382;2022-07-23T14:36:46;97416.88;;;24.36
73662;BMP280;61956;52.540;13.382;2022-07-23T14:39:15;96833.63;;;24.28
73662;BMP280;61956;52.540;13.382;2022-07-23T14:41:44;96530.94;;;24.19
73662;BMP280;61956;52.540;13.382;2022-07-23T14:44:13;98707.97;;;24.51
73662;BMP280;61956;52.540;13.382;2022-07-23T14:46:42;98061.69;;;24.49
73662;BMP280;61956;52.540;13.382;2022-07-23T14:49:12;96472.78;;;24.28
73662;BMP280;61956;52.540;13.382;2022-07-23T14:51:41;96906.72;;;24.26
73662;BMP280;61956;52.540;13.382;2022-07-23T14:54:13;96702.81;;;24.26
73662;BMP280;61956;52.540;13.382;2022-07-23T14:56:42;96615.44;;;24.26
73662;BMP280;61956;52.540;13.382;2022-07-23T14:59:12;97955.00;;;24.42
73662;BMP280;61956;52.540;13.382;2022-07-23T15:01:41;95351.44;;;24.06
73662;BMP280;61956;52.540;13.382;2022-07-23T15:04:11;95652.94;;;24.01
73662;BMP280;61956;52.540;13.382;2022-07-23T15:06:40;95625.47;;;23.98
73662;BMP280;61956;52.540;13.382;2022-07-23T15:09:13;95771.28;;;24.00
73662;BMP280;61956;52.540;13.382;2022-07-23T15:11:42;96323.03;;;24.05
73662;BMP280;61956;52.540;13.382;2022-07-23T15:14:11;95435.16;;;23.95